sensor_id;sensor_type;location;lat;lon;timestamp;pressure;altitude;pressure_sealevel;temperature
13304;BMP280;6720;51.958;4.540;2023-05-10T00:00:10;100643.13;;;13.70
13304;BMP280;6720;51.958;4.540;2023-05-10T00:02:35;100651.25;;;13.63
13304;BMP280;6720;51.958;4.540;2023-05-10T00:05:01;100657.25;;;13.66
13304;BMP280;6720;51.958;4.540;2023-05-10T00:07:26;100660.13;;;13.59
13304;BMP280;6720;51.958;4.540;2023-05-10T00:09:52;100655.75;;;13.59
13304;BMP280;6720;51.958;4.540;2023-05-10T00:12:17;100649.66;;;13.57
13304;BMP280;6720;51.958;4.540;2023-05-10T00:14:43;100649.72;;;13.56
13304;BMP280;6720;51.958;4.540;2023-05-10T00:17:08;100652.19;;;13.60
13304;BMP280;6720;51.958;4.540;2023-05-10T00:19:33;100661.09;;;13.56
13304;BMP280;6720;51.958;4.540;2023-05-10T00:21:59;100652.38;;;13.54
13304;BMP280;6720;51.958;4.540;2023-05-10T00:24:24;100647.34;;;13.48
13304;BMP280;6720;51.958;4.540;2023-05-10T00:26:50;100653.91;;;13.61
13304;BMP280;6720;51.958;4.540;2023-05-10T00:29:15;100657.38;;;13.63
13304;BMP280;6720;51.958;4.540;2023-05-10T00:31:41;100653.81;;;13.64
13304;BMP280;6720;51.958;4.540;2023-05-10T00:34:06;100660.78;;;13.65
13304;BMP280;6720;51.958;4.540;2023-05-10T00:36:31;100655.53;;;13.65
13304;BMP280;6720;51.958;4.540;2023-05-10T00:38:57;100649.47;;;13.63
13304;BMP280;6720;51.958;4.540;2023-05-10T00:41:22;100643.53;;;13.57
13304;BMP280;6720;51.958;4.540;2023-05-10T00:43:47;100648.66;;;13.61
13304;BMP280;6720;51.958;4.540;2023-05-10T00:46:14;100643.41;;;13.61
13304;BMP280;6720;51.958;4.540;2023-05-10T00:48:40;100653.16;;;13.58
13304;BMP280;6720;51.958;4.540;2023-05-10T00:51:06;100649.63;;;13.59
13304;BMP280;6720;51.958;4.540;2023-05-10T00:53:31;100643.63;;;13.55
13304;BMP280;6720;51.958;4.540;2023-05-10T00:55:58;100651.41;;;13.57
13304;BMP280;6720;51.958;4.540;2023-05-10T00:58:24;100651.63;;;13.51
13304;BMP280;6720;51.958;4.540;2023-05-10T01:00:54;100651.69;;;13.49
13304;BMP280;6720;51.958;4.540;2023-05-10T01:03:20;100653.38;;;13.50
13304;BMP280;6720;51.958;4.540;2023-05-10T01:05:46;100650.00;;;13.47
13304;BMP280;6720;51.958;4.540;2023-05-10T01:08:11;100667.56;;;13.46
13304;BMP280;6720;51.958;4.540;2023-05-10T01:10:37;100671.97;;;13.46
13304;BMP280;6720;51.958;4.540;2023-05-10T01:13:02;100677.97;;;13.49
13304;BMP280;6720;51.958;4.540;2023-05-10T01:15:28;100666.63;;;13.47
13304;BMP280;6720;51.958;4.540;2023-05-10T01:17:55;100670.66;;;13.59
13304;BMP280;6720;51.958;4.540;2023-05-10T01:20:21;100659.44;;;13.54
13304;BMP280;6720;51.958;4.540;2023-05-10T01:28:23;100681.66;;;13.71
13304;BMP280;6720;51.958;4.540;2023-05-10T01:33:59;100674.00;;;13.64
13304;BMP280;6720;51.958;4.540;2023-05-10T01:36:42;100687.75;;;13.72
13304;BMP280;6720;51.958;4.540;2023-05-10T01:39:11;100679.72;;;13.76
13304;BMP280;6720;51.958;4.540;2023-05-10T01:41:54;100683.28;;;13.75
13304;BMP280;6720;51.958;4.540;2023-05-10T01:44:34;100661.66;;;13.66
13304;BMP280;6720;51.958;4.540;2023-05-10T01:49:53;100690.22;;;13.78
13304;BMP280;6720;51.958;4.540;2023-05-10T01:52:44;100698.19;;;13.75
13304;BMP280;6720;51.958;4.540;2023-05-10T01:55:16;100696.16;;;13.83
13304;BMP280;6720;51.958;4.540;2023-05-10T01:57:44;100693.41;;;13.87
13304;BMP280;6720;51.958;4.540;2023-05-10T02:00:11;100690.72;;;13.89
13304;BMP280;6720;51.958;4.540;2023-05-10T02:02:40;100691.47;;;13.92
13304;BMP280;6720;51.958;4.540;2023-05-10T02:05:08;100687.06;;;13.93
13304;BMP280;6720;51.958;4.540;2023-05-10T02:07:36;100686.19;;;13.92
13304;BMP280;6720;51.958;4.540;2023-05-10T02:10:05;100693.00;;;13.99
13304;BMP280;6720;51.958;4.540;2023-05-10T02:12:35;100680.84;;;13.95
13304;BMP280;6720;51.958;4.540;2023-05-10T02:15:04;100687.81;;;13.96
13304;BMP280;6720;51.958;4.540;2023-05-10T02:17:31;100688.56;;;14.01
13304;BMP280;6720;51.958;4.540;2023-05-10T02:19:58;100703.97;;;14.12
13304;BMP280;6720;51.958;4.540;2023-05-10T02:22:26;100696.03;;;14.13
13304;BMP280;6720;51.958;4.540;2023-05-10T02:24:53;100689.00;;;14.14
13304;BMP280;6720;51.958;4.540;2023-05-10T02:27:19;100696.72;;;14.18
13304;BMP280;6720;51.958;4.540;2023-05-10T02:29:46;100685.66;;;14.09
13304;BMP280;6720;51.958;4.540;2023-05-10T02:32:12;100707.53;;;14.11
13304;BMP280;6720;51.958;4.540;2023-05-10T02:34:40;100713.59;;;14.13
13304;BMP280;6720;51.958;4.540;2023-05-10T02:37:05;100710.22;;;14.09
13304;BMP280;6720;51.958;4.540;2023-05-10T02:39:32;100701.28;;;14.13
13304;BMP280;6720;51.958;4.540;2023-05-10T02:41:58;100700.56;;;14.10
13304;BMP280;6720;51.958;4.540;2023-05-10T02:44:26;100723.31;;;14.11
13304;BMP280;6720;51.958;4.540;2023-05-10T02:46:53;100714.50;;;14.12
13304;BMP280;6720;51.958;4.540;2023-05-10T02:49:21;100716.28;;;14.11
13304;BMP280;6720;51.958;4.540;2023-05-10T02:51:58;100719.13;;;14.05
13304;BMP280;6720;51.958;4.540;2023-05-10T02:54:29;100708.69;;;14.02
13304;BMP280;6720;51.958;4.540;2023-05-10T02:56:57;100693.97;;;13.97
13304;BMP280;6720;51.958;4.540;2023-05-10T02:59:24;100715.47;;;14.09
13304;BMP280;6720;51.958;4.540;2023-05-10T03:01:49;100716.28;;;14.11
13304;BMP280;6720;51.958;4.540;2023-05-10T03:04:15;100713.63;;;14.11
13304;BMP280;6720;51.958;4.540;2023-05-10T03:06:41;100719.69;;;14.15
13304;BMP280;6720;51.958;4.540;2023-05-10T03:09:07;100711.09;;;14.10
13304;BMP280;6720;51.958;4.540;2023-05-10T03:16:56;100705.22;;;14.00
13304;BMP280;6720;51.958;4.540;2023-05-10T03:19:30;100702.69;;;13.99
13304;BMP280;6720;51.958;4.540;2023-05-10T03:21:59;100712.34;;;13.98
13304;BMP280;6720;51.958;4.540;2023-05-10T03:24:29;100715.66;;;14.03
13304;BMP280;6720;51.958;4.540;2023-05-10T03:26:56;100722.50;;;14.09
13304;BMP280;6720;51.958;4.540;2023-05-10T03:29:25;100714.88;;;14.01
13304;BMP280;6720;51.958;4.540;2023-05-10T03:31:51;100722.69;;;14.04
13304;BMP280;6720;51.958;4.540;2023-05-10T03:34:16;100731.38;;;14.06
13304;BMP280;6720;51.958;4.540;2023-05-10T03:36:42;100726.41;;;13.97
13304;BMP280;6720;51.958;4.540;2023-05-10T03:39:07;100735.31;;;13.93
13304;BMP280;6720;51.958;4.540;2023-05-10T03:41:33;100733.56;;;13.92
13304;BMP280;6720;51.958;4.540;2023-05-10T03:43:59;100729.22;;;13.91
13304;BMP280;6720;51.958;4.540;2023-05-10T03:46:24;100734.53;;;13.90
13304;BMP280;6720;51.958;4.540;2023-05-10T03:48:50;100737.44;;;13.82
13304;BMP280;6720;51.958;4.540;2023-05-10T03:51:15;100724.31;;;13.81
13304;BMP280;6720;51.958;4.540;2023-05-10T03:53:40;100729.53;;;13.82
13304;BMP280;6720;51.958;4.540;2023-05-10T03:56:06;100723.25;;;13.86
13304;BMP280;6720;51.958;4.540;2023-05-10T03:58:31;100724.22;;;13.84
13304;BMP280;6720;51.958;4.540;2023-05-10T04:00:56;100735.63;;;13.83
13304;BMP280;6720;51.958;4.540;2023-05-10T04:03:22;100726.91;;;13.82
13304;BMP280;6720;51.958;4.540;2023-05-10T04:05:49;100737.59;;;13.76
13304;BMP280;6720;51.958;4.540;2023-05-10T04:08:23;100738.38;;;13.80
13304;BMP280;6720;51.958;4.540;2023-05-10T04:10:48;100735.09;;;14.27
13304;BMP280;6720;51.958;4.540;2023-05-10T04:13:13;100744.00;;;13.95
13304;BMP280;6720;51.958;4.540;2023-05-10T04:15:39;100739.09;;;13.85
13304;BMP280;6720;51.958;4.540;2023-05-10T04:18:05;100733.84;;;13.85
13304;BMP280;6720;51.958;4.540;2023-05-10T04:20:32;100741.88;;;13.80
13304;BMP280;6720;51.958;4.540;2023-05-10T04:22:57;100751.91;;;13.68
13304;BMP280;6720;51.958;4.540;2023-05-10T04:25:23;100743.91;;;13.71
13304;BMP280;6720;51.958;4.540;2023-05-10T04:27:48;100757.03;;;13.72
13304;BMP280;6720;51.958;4.540;2023-05-10T04:30:14;100755.50;;;13.65
13304;BMP280;6720;51.958;4.540;2023-05-10T04:32:39;100751.25;;;13.61
13304;BMP280;6720;51.958;4.540;2023-05-10T04:35:05;100747.81;;;13.59
13304;BMP280;6720;51.958;4.540;2023-05-10T04:37:30;100749.47;;;13.62
13304;BMP280;6720;51.958;4.540;2023-05-10T04:39:56;100757.31;;;13.63
13304;BMP280;6720;51.958;4.540;2023-05-10T04:42:21;100755.50;;;13.65
13304;BMP280;6720;51.958;4.540;2023-05-10T04:44:46;100763.38;;;13.65
13304;BMP280;6720;51.958;4.540;2023-05-10T04:47:12;100763.44;;;13.64
13304;BMP280;6720;51.958;4.540;2023-05-10T04:49:38;100761.88;;;13.57
13304;BMP280;6720;51.958;4.540;2023-05-10T04:52:03;100772.53;;;13.54
13304;BMP280;6720;51.958;4.540;2023-05-10T04:54:29;100773.56;;;13.48
13304;BMP280;6720;51.958;4.540;2023-05-10T04:56:54;100767.34;;;13.51
13304;BMP280;6720;51.958;4.540;2023-05-10T04:59:20;100775.88;;;13.59
13304;BMP280;6720;51.958;4.540;2023-05-10T05:01:45;100782.72;;;13.64
13304;BMP280;6720;51.958;4.540;2023-05-10T05:04:10;100774.81;;;13.64
13304;BMP280;6720;51.958;4.540;2023-05-10T05:06:36;100780.16;;;13.61
13304;BMP280;6720;51.958;4.540;2023-05-10T05:09:02;100786.22;;;13.65
13304;BMP280;6720;51.958;4.540;2023-05-10T05:11:27;100791.78;;;13.54
13304;BMP280;6720;51.958;4.540;2023-05-10T05:13:53;100790.91;;;13.55
13304;BMP280;6720;51.958;4.540;2023-05-10T05:16:19;100788.56;;;13.45
13304;BMP280;6720;51.958;4.540;2023-05-10T05:18:44;100798.25;;;13.44
13304;BMP280;6720;51.958;4.540;2023-05-10T05:21:16;100799.94;;;13.45
13304;BMP280;6720;51.958;4.540;2023-05-10T05:23:42;100798.13;;;13.47
13304;BMP280;6720;51.958;4.540;2023-05-10T05:26:08;100811.03;;;13.56
13304;BMP280;6720;51.958;4.540;2023-05-10T05:28:33;100805.00;;;13.51
13304;BMP280;6720;51.958;4.540;2023-05-10T05:31:03;100805.16;;;13.47
13304;BMP280;6720;51.958;4.540;2023-05-10T05:33:28;100810.44;;;13.47
13304;BMP280;6720;51.958;4.540;2023-05-10T05:35:54;100806.28;;;13.38
13304;BMP280;6720;51.958;4.540;2023-05-10T05:38:19;100810.72;;;13.36
13304;BMP280;6720;51.958;4.540;2023-05-10T05:40:45;100804.50;;;13.40
13304;BMP280;6720;51.958;4.540;2023-05-10T05:43:10;100807.81;;;13.47
13304;BMP280;6720;51.958;4.540;2023-05-10T05:45:36;100807.88;;;13.44
13304;BMP280;6720;51.958;4.540;2023-05-10T05:48:01;100823.50;;;13.50
13304;BMP280;6720;51.958;4.540;2023-05-10T05:50:29;100812.91;;;13.51
13304;BMP280;6720;51.958;4.540;2023-05-10T05:52:57;100820.53;;;13.60
13304;BMP280;6720;51.958;4.540;2023-05-10T05:55:22;100806.75;;;13.52
13304;BMP280;6720;51.958;4.540;2023-05-10T05:57:49;100812.44;;;13.66
13304;BMP280;6720;51.958;4.540;2023-05-10T06:00:15;100820.22;;;13.71
13304;BMP280;6720;51.958;4.540;2023-05-10T06:02:43;100823.72;;;13.71
13304;BMP280;6720;51.958;4.540;2023-05-10T06:05:09;100827.69;;;13.84
13304;BMP280;6720;51.958;4.540;2023-05-10T06:07:34;100830.41;;;13.81
13304;BMP280;6720;51.958;4.540;2023-05-10T06:10:00;100829.53;;;13.82
13304;BMP280;6720;51.958;4.540;2023-05-10T06:12:25;100834.53;;;13.90
13304;BMP280;6720;51.958;4.540;2023-05-10T06:14:50;100830.19;;;13.89
13304;BMP280;6720;51.958;4.540;2023-05-10T06:17:16;100830.06;;;13.93
13304;BMP280;6720;51.958;4.540;2023-05-10T06:19:42;100837.00;;;13.96
13304;BMP280;6720;51.958;4.540;2023-05-10T06:22:07;100830.72;;;14.00
13304;BMP280;6720;51.958;4.540;2023-05-10T06:24:32;100836.94;;;13.97
13304;BMP280;6720;51.958;4.540;2023-05-10T06:26:58;100826.50;;;13.94
13304;BMP280;6720;51.958;4.540;2023-05-10T06:29:25;100828.94;;;14.00
13304;BMP280;6720;51.958;4.540;2023-05-10T06:31:50;100835.69;;;14.09
13304;BMP280;6720;51.958;4.540;2023-05-10T06:34:16;100835.44;;;14.18
13304;BMP280;6720;51.958;4.540;2023-05-10T06:36:41;100837.03;;;14.23
13304;BMP280;6720;51.958;4.540;2023-05-10T06:39:06;100835.81;;;14.33
13304;BMP280;6720;51.958;4.540;2023-05-10T06:41:33;100837.91;;;14.50
13304;BMP280;6720;51.958;4.540;2023-05-10T06:43:59;100839.78;;;14.46
13304;BMP280;6720;51.958;4.540;2023-05-10T06:46:24;100843.69;;;14.61
13304;BMP280;6720;51.958;4.540;2023-05-10T06:48:49;100853.75;;;14.74
13304;BMP280;6720;51.958;4.540;2023-05-10T06:51:15;100838.72;;;14.78
13304;BMP280;6720;51.958;4.540;2023-05-10T06:53:40;100840.81;;;14.68
13304;BMP280;6720;51.958;4.540;2023-05-10T06:56:06;100818.81;;;14.69
13304;BMP280;6720;51.958;4.540;2023-05-10T06:58:32;100841.78;;;14.91
13304;BMP280;6720;51.958;4.540;2023-05-10T07:01:07;100845.63;;;15.07
13304;BMP280;6720;51.958;4.540;2023-05-10T07:03:32;100848.84;;;15.15
13304;BMP280;6720;51.958;4.540;2023-05-10T07:06:02;100849.69;;;15.15
13304;BMP280;6720;51.958;4.540;2023-05-10T07:08:34;100859.53;;;15.10
13304;BMP280;6720;51.958;4.540;2023-05-10T07:11:02;100852.50;;;15.11
13304;BMP280;6720;51.958;4.540;2023-05-10T07:13:29;100858.81;;;15.07
13304;BMP280;6720;51.958;4.540;2023-05-10T07:15:55;100854.59;;;15.01
13304;BMP280;6720;51.958;4.540;2023-05-10T07:18:20;100857.97;;;15.05
13304;BMP280;6720;51.958;4.540;2023-05-10T07:20:46;100857.88;;;15.08
13304;BMP280;6720;51.958;4.540;2023-05-10T07:23:11;100849.28;;;15.03
13304;BMP280;6720;51.958;4.540;2023-05-10T07:25:37;100867.34;;;15.13
13304;BMP280;6720;51.958;4.540;2023-05-10T07:28:03;100866.28;;;15.19
13304;BMP280;6720;51.958;4.540;2023-05-10T07:30:29;100861.09;;;15.16
13304;BMP280;6720;51.958;4.540;2023-05-10T07:32:54;100868.19;;;15.14
13304;BMP280;6720;51.958;4.540;2023-05-10T07:35:20;100867.13;;;15.19
13304;BMP280;6720;51.958;4.540;2023-05-10T07:37:45;100868.53;;;15.05
13304;BMP280;6720;51.958;4.540;2023-05-10T07:40:11;100872.47;;;15.18
13304;BMP280;6720;51.958;4.540;2023-05-10T07:42:36;100867.94;;;15.21
13304;BMP280;6720;51.958;4.540;2023-05-10T07:45:02;100867.78;;;15.26
13304;BMP280;6720;51.958;4.540;2023-05-10T07:47:29;100873.06;;;15.26
13304;BMP280;6720;51.958;4.540;2023-05-10T07:49:54;100874.56;;;15.33
13304;BMP280;6720;51.958;4.540;2023-05-10T07:52:19;100879.91;;;15.31
13304;BMP280;6720;51.958;4.540;2023-05-10T07:54:45;100871.84;;;15.36
13304;BMP280;6720;51.958;4.540;2023-05-10T07:57:11;100871.94;;;15.33
13304;BMP280;6720;51.958;4.540;2023-05-10T07:59:36;100874.56;;;15.33
13304;BMP280;6720;51.958;4.540;2023-05-10T08:02:02;100874.72;;;15.28
13304;BMP280;6720;51.958;4.540;2023-05-10T08:04:27;100878.34;;;15.26
13304;BMP280;6720;51.958;4.540;2023-05-10T08:06:52;100877.13;;;15.34
13304;BMP280;6720;51.958;4.540;2023-05-10T08:09:19;100888.47;;;15.38
13304;BMP280;6720;51.958;4.540;2023-05-10T08:11:49;100884.19;;;15.34
13304;BMP280;6720;51.958;4.540;2023-05-10T08:14:14;100891.59;;;15.49
13304;BMP280;6720;51.958;4.540;2023-05-10T08:16:39;100888.03;;;15.50
13304;BMP280;6720;51.958;4.540;2023-05-10T08:19:05;100891.59;;;15.49
13304;BMP280;6720;51.958;4.540;2023-05-10T08:21:30;100894.00;;;15.55
13304;BMP280;6720;51.958;4.540;2023-05-10T08:23:56;100898.50;;;15.53
13304;BMP280;6720;51.958;4.540;2023-05-10T08:26:21;100903.47;;;15.60
13304;BMP280;6720;51.958;4.540;2023-05-10T08:28:47;100904.13;;;15.67
13304;BMP280;6720;51.958;4.540;2023-05-10T08:31:14;100907.41;;;15.73
13304;BMP280;6720;51.958;4.540;2023-05-10T08:33:40;100902.06;;;15.75
13304;BMP280;6720;51.958;4.540;2023-05-10T08:36:06;100908.25;;;15.74
13304;BMP280;6720;51.958;4.540;2023-05-10T08:38:31;100907.34;;;15.75
13304;BMP280;6720;51.958;4.540;2023-05-10T08:40:57;100908.75;;;15.83
13304;BMP280;6720;51.958;4.540;2023-05-10T08:43:26;100909.53;;;15.87
13304;BMP280;6720;51.958;4.540;2023-05-10T08:45:54;100907.69;;;15.89
13304;BMP280;6720;51.958;4.540;2023-05-10T08:48:23;100914.56;;;15.93
13304;BMP280;6720;51.958;4.540;2023-05-10T08:50:52;100931.38;;;15.90
13304;BMP280;6720;51.958;4.540;2023-05-10T08:53:19;100926.75;;;15.97
13304;BMP280;6720;51.958;4.540;2023-05-10T08:55:46;100933.41;;;15.84
13304;BMP280;6720;51.958;4.540;2023-05-10T08:58:12;100937.44;;;15.94
13304;BMP280;6720;51.958;4.540;2023-05-10T09:00:37;100932.84;;;15.99
13304;BMP280;6720;51.958;4.540;2023-05-10T09:03:04;100941.78;;;16.18
13304;BMP280;6720;51.958;4.540;2023-05-10T09:05:30;100930.66;;;16.10
13304;BMP280;6720;51.958;4.540;2023-05-10T09:07:56;100933.31;;;16.31
13304;BMP280;6720;51.958;4.540;2023-05-10T09:10:22;100942.47;;;16.46
13304;BMP280;6720;51.958;4.540;2023-05-10T09:12:51;100941.00;;;16.60
13304;BMP280;6720;51.958;4.540;2023-05-10T09:15:17;100940.84;;;16.65
13304;BMP280;6720;51.958;4.540;2023-05-10T09:17:45;100946.78;;;16.70
13304;BMP280;6720;51.958;4.540;2023-05-10T09:20:11;100945.56;;;16.78
13304;BMP280;6720;51.958;4.540;2023-05-10T09:22:36;100956.97;;;16.79
13304;BMP280;6720;51.958;4.540;2023-05-10T09:25:14;100953.91;;;16.68
13304;BMP280;6720;51.958;4.540;2023-05-10T09:27:41;100952.06;;;16.70
13304;BMP280;6720;51.958;4.540;2023-05-10T09:30:16;100953.78;;;16.49
13304;BMP280;6720;51.958;4.540;2023-05-10T09:32:43;100950.59;;;16.63
13304;BMP280;6720;51.958;4.540;2023-05-10T09:35:10;100952.31;;;16.64
13304;BMP280;6720;51.958;4.540;2023-05-10T09:37:38;100942.22;;;16.52
13304;BMP280;6720;51.958;4.540;2023-05-10T09:40:07;100971.75;;;16.63
13304;BMP280;6720;51.958;4.540;2023-05-10T09:42:34;100964.06;;;16.78
13304;BMP280;6720;51.958;4.540;2023-05-10T09:45:03;100972.06;;;16.77
13304;BMP280;6720;51.958;4.540;2023-05-10T09:47:29;100964.56;;;16.88
13304;BMP280;6720;51.958;4.540;2023-05-10T09:49:55;100968.41;;;17.01
13304;BMP280;6720;51.958;4.540;2023-05-10T09:52:27;100970.28;;;16.99
13304;BMP280;6720;51.958;4.540;2023-05-10T09:54:53;100973.22;;;16.91
13304;BMP280;6720;51.958;4.540;2023-05-10T09:57:23;100976.03;;;16.87
13304;BMP280;6720;51.958;4.540;2023-05-10T09:59:49;100985.50;;;16.92
13304;BMP280;6720;51.958;4.540;2023-05-10T10:02:16;100973.34;;;17.10
13304;BMP280;6720;51.958;4.540;2023-05-10T10:04:42;100980.94;;;17.17
13304;BMP280;6720;51.958;4.540;2023-05-10T10:07:08;100965.59;;;17.05
13304;BMP280;6720;51.958;4.540;2023-05-10T10:09:34;100977.53;;;17.15
13304;BMP280;6720;51.958;4.540;2023-05-10T10:12:01;100983.66;;;17.16
13304;BMP280;6720;51.958;4.540;2023-05-10T10:14:28;100989.22;;;17.30
13304;BMP280;6720;51.958;4.540;2023-05-10T10:16:53;100986.72;;;17.27
13304;BMP280;6720;51.958;4.540;2023-05-10T10:19:19;100982.81;;;17.35
13304;BMP280;6720;51.958;4.540;2023-05-10T10:21:46;100991.03;;;17.08
13304;BMP280;6720;51.958;4.540;2023-05-10T10:24:11;100985.28;;;16.98
13304;BMP280;6720;51.958;4.540;2023-05-10T10:26:37;100981.09;;;16.93
13304;BMP280;6720;51.958;4.540;2023-05-10T10:32:02;100971.06;;;17.21
13304;BMP280;6720;51.958;4.540;2023-05-10T10:34:30;100995.19;;;17.35
13304;BMP280;6720;51.958;4.540;2023-05-10T10:36:57;100995.19;;;17.35
13304;BMP280;6720;51.958;4.540;2023-05-10T10:39:24;100990.69;;;17.37
13304;BMP280;6720;51.958;4.540;2023-05-10T10:41:56;100996.28;;;17.51
13304;BMP280;6720;51.958;4.540;2023-05-10T10:52:23;101014.78;;;17.09
13304;BMP280;6720;51.958;4.540;2023-05-10T10:57:24;101008.69;;;16.86
13304;BMP280;6720;51.958;4.540;2023-05-10T11:00:17;101015.78;;;16.85
13304;BMP280;6720;51.958;4.540;2023-05-10T11:02:43;101013.00;;;16.67
13304;BMP280;6720;51.958;4.540;2023-05-10T11:08:09;101013.03;;;16.44
13304;BMP280;6720;51.958;4.540;2023-05-10T11:10:34;101013.66;;;16.26
13304;BMP280;6720;51.958;4.540;2023-05-10T11:13:01;101016.88;;;16.34
13304;BMP280;6720;51.958;4.540;2023-05-10T11:15:38;100998.41;;;16.57
13304;BMP280;6720;51.958;4.540;2023-05-10T11:20:42;101018.09;;;17.14
13304;BMP280;6720;51.958;4.540;2023-05-10T11:23:13;101014.09;;;17.26
13304;BMP280;6720;51.958;4.540;2023-05-10T11:25:43;101011.69;;;17.20
13304;BMP280;6720;51.958;4.540;2023-05-10T11:28:09;101024.63;;;17.06
13304;BMP280;6720;51.958;4.540;2023-05-10T11:30:36;101021.81;;;17.10
13304;BMP280;6720;51.958;4.540;2023-05-10T11:33:02;101022.03;;;17.26
13304;BMP280;6720;51.958;4.540;2023-05-10T11:35:27;101022.28;;;17.20
13304;BMP280;6720;51.958;4.540;2023-05-10T11:37:53;101028.06;;;17.29
13304;BMP280;6720;51.958;4.540;2023-05-10T11:40:18;101027.50;;;17.43
13304;BMP280;6720;51.958;4.540;2023-05-10T11:42:44;101015.38;;;17.59
13304;BMP280;6720;51.958;4.540;2023-05-10T11:45:10;101030.22;;;17.63
13304;BMP280;6720;51.958;4.540;2023-05-10T11:47:36;101034.28;;;17.70
13304;BMP280;6720;51.958;4.540;2023-05-10T11:50:02;101023.69;;;17.50
13304;BMP280;6720;51.958;4.540;2023-05-10T11:52:27;101028.81;;;17.33
13304;BMP280;6720;51.958;4.540;2023-05-10T11:54:54;101032.97;;;17.60
13304;BMP280;6720;51.958;4.540;2023-05-10T11:57:21;101033.31;;;17.72
13304;BMP280;6720;51.958;4.540;2023-05-10T11:59:53;101039.97;;;17.61
13304;BMP280;6720;51.958;4.540;2023-05-10T12:02:20;101038.28;;;17.60
13304;BMP280;6720;51.958;4.540;2023-05-10T12:04:46;101043.56;;;17.60
13304;BMP280;6720;51.958;4.540;2023-05-10T12:07:11;101035.16;;;17.50
13304;BMP280;6720;51.958;4.540;2023-05-10T12:09:43;101039.25;;;17.36
13304;BMP280;6720;51.958;4.540;2023-05-10T12:12:15;101040.19;;;17.35
13304;BMP280;6720;51.958;4.540;2023-05-10T12:14:41;101035.81;;;17.34
13304;BMP280;6720;51.958;4.540;2023-05-10T12:17:06;101043.63;;;17.37
13304;BMP280;6720;51.958;4.540;2023-05-10T12:19:39;101050.81;;;17.33
13304;BMP280;6720;51.958;4.540;2023-05-10T12:22:05;101044.88;;;17.50
13304;BMP280;6720;51.958;4.540;2023-05-10T12:24:34;101053.09;;;17.44
13304;BMP280;6720;51.958;4.540;2023-05-10T12:27:00;101039.03;;;17.20
13304;BMP280;6720;51.958;4.540;2023-05-10T12:29:30;101051.81;;;17.31
13304;BMP280;6720;51.958;4.540;2023-05-10T12:31:58;101034.97;;;17.12
13304;BMP280;6720;51.958;4.540;2023-05-10T12:34:41;101061.19;;;17.18
13304;BMP280;6720;51.958;4.540;2023-05-10T12:37:07;101052.38;;;16.96
13304;BMP280;6720;51.958;4.540;2023-05-10T12:39:42;101062.84;;;16.99
13304;BMP280;6720;51.958;4.540;2023-05-10T12:42:07;101061.84;;;17.23
13304;BMP280;6720;51.958;4.540;2023-05-10T12:44:34;101054.03;;;17.41
13304;BMP280;6720;51.958;4.540;2023-05-10T12:46:59;101061.19;;;17.18
13304;BMP280;6720;51.958;4.540;2023-05-10T12:49:25;101060.69;;;17.08
13304;BMP280;6720;51.958;4.540;2023-05-10T12:51:50;101063.97;;;17.15
13304;BMP280;6720;51.958;4.540;2023-05-10T12:54:16;101063.28;;;17.31
13304;BMP280;6720;51.958;4.540;2023-05-10T12:56:41;101067.97;;;17.46
13304;BMP280;6720;51.958;4.540;2023-05-10T12:59:07;101061.97;;;17.83
13304;BMP280;6720;51.958;4.540;2023-05-10T13:01:33;101071.03;;;17.57
13304;BMP280;6720;51.958;4.540;2023-05-10T13:03:58;101073.88;;;17.53
13304;BMP280;6720;51.958;4.540;2023-05-10T13:06:25;101067.47;;;17.37
13304;BMP280;6720;51.958;4.540;2023-05-10T13:08:50;101070.03;;;17.17
13304;BMP280;6720;51.958;4.540;2023-05-10T13:11:17;101073.59;;;17.16
13304;BMP280;6720;51.958;4.540;2023-05-10T13:13:44;101073.06;;;17.08
13304;BMP280;6720;51.958;4.540;2023-05-10T13:16:10;101070.63;;;17.02
13304;BMP280;6720;51.958;4.540;2023-05-10T13:18:55;101070.41;;;17.08
13304;BMP280;6720;51.958;4.540;2023-05-10T13:21:20;101066.91;;;17.29
13304;BMP280;6720;51.958;4.540;2023-05-10T13:23:46;101074.09;;;17.25
13304;BMP280;6720;51.958;4.540;2023-05-10T13:26:12;101079.09;;;17.33
13304;BMP280;6720;51.958;4.540;2023-05-10T13:28:37;101065.88;;;17.33
13304;BMP280;6720;51.958;4.540;2023-05-10T13:31:04;101086.34;;;17.28
13304;BMP280;6720;51.958;4.540;2023-05-10T13:33:30;101084.38;;;17.33
13304;BMP280;6720;51.958;4.540;2023-05-10T13:35:55;101088.38;;;17.21
13304;BMP280;6720;51.958;4.540;2023-05-10T13:38:20;101083.53;;;17.11
13304;BMP280;6720;51.958;4.540;2023-05-10T13:40:46;101081.22;;;17.02
13304;BMP280;6720;51.958;4.540;2023-05-10T13:43:11;101085.19;;;17.13
13304;BMP280;6720;51.958;4.540;2023-05-10T13:45:37;101082.59;;;17.12
13304;BMP280;6720;51.958;4.540;2023-05-10T13:48:02;101085.19;;;17.13
13304;BMP280;6720;51.958;4.540;2023-05-10T13:50:28;101091.69;;;17.05
13304;BMP280;6720;51.958;4.540;2023-05-10T13:52:53;101086.25;;;16.86
13304;BMP280;6720;51.958;4.540;2023-05-10T13:55:19;101086.53;;;17.23
13304;BMP280;6720;51.958;4.540;2023-05-10T13:57:44;101088.50;;;17.40
13304;BMP280;6720;51.958;4.540;2023-05-10T14:00:10;101089.47;;;17.37
13304;BMP280;6720;51.958;4.540;2023-05-10T14:02:35;101088.81;;;17.54
13304;BMP280;6720;51.958;4.540;2023-05-10T14:05:01;101082.97;;;17.46
13304;BMP280;6720;51.958;4.540;2023-05-10T14:07:27;101094.06;;;17.55
13304;BMP280;6720;51.958;4.540;2023-05-10T14:09:52;101086.28;;;17.51
13304;BMP280;6720;51.958;4.540;2023-05-10T14:12:17;101090.81;;;17.69
13304;BMP280;6720;51.958;4.540;2023-05-10T14:14:43;101091.53;;;17.74
13304;BMP280;6720;51.958;4.540;2023-05-10T14:17:08;101084.94;;;17.82
13304;BMP280;6720;51.958;4.540;2023-05-10T14:19:33;101081.78;;;17.94
13304;BMP280;6720;51.958;4.540;2023-05-10T14:21:59;101086.22;;;17.94
13304;BMP280;6720;51.958;4.540;2023-05-10T14:24:25;101081.63;;;17.97
13304;BMP280;6720;51.958;4.540;2023-05-10T14:26:50;101073.84;;;17.94
13304;BMP280;6720;51.958;4.540;2023-05-10T14:29:18;101082.16;;;18.05
13304;BMP280;6720;51.958;4.540;2023-05-10T14:31:44;101081.25;;;18.06
13304;BMP280;6720;51.958;4.540;2023-05-10T14:34:09;101084.97;;;18.02
13304;BMP280;6720;51.958;4.540;2023-05-10T14:36:35;101078.66;;;18.05
13304;BMP280;6720;51.958;4.540;2023-05-10T14:39:00;101087.84;;;18.16
13304;BMP280;6720;51.958;4.540;2023-05-10T14:41:25;101087.41;;;18.07